createdAt,value
2017-03-26T00:00:35.247Z,99.7
2017-03-26T00:01:37.060Z,99.4
2017-03-26T00:02:38.878Z,99.5
2017-03-26T00:03:40.695Z,99.9
2017-03-26T00:04:42.531Z,100
2017-03-26T00:05:44.683Z,100
2017-03-26T00:06:46.506Z,100
2017-03-26T00:07:48.307Z,100
2017-03-26T00:08:50.126Z,100
2017-03-26T00:09:51.943Z,100
2017-03-26T00:10:53.755Z,100
2017-03-26T00:11:55.892Z,100
2017-03-26T00:12:58.055Z,100
2017-03-26T00:13:59.875Z,100
2017-03-26T00:15:02.034Z,100
2017-03-26T00:16:03.836Z,100
2017-03-26T00:17:05.991Z,100
2017-03-26T00:18:07.799Z,100
2017-03-26T00:19:09.623Z,100
2017-03-26T00:20:11.782Z,100
2017-03-26T00:21:13.936Z,100
2017-03-26T00:22:16.090Z,100
2017-03-26T00:23:17.906Z,100
2017-03-26T00:24:20.065Z,100
2017-03-26T00:25:21.876Z,100
2017-03-26T00:26:23.683Z,100
2017-03-26T00:27:25.499Z,100
2017-03-26T00:28:27.324Z,100
2017-03-26T00:29:29.133Z,100
2017-03-26T00:30:30.940Z,100
2017-03-26T00:31:32.767Z,100
2017-03-26T00:32:34.583Z,100
2017-03-26T00:33:36.402Z,100
2017-03-26T00:34:38.248Z,100
2017-03-26T00:35:40.042Z,100
2017-03-26T00:36:42.218Z,100
2017-03-26T00:37:44.032Z,100
2017-03-26T00:38:46.195Z,100
2017-03-26T00:39:48.005Z,100
2017-03-26T00:40:49.807Z,100
2017-03-26T00:41:51.628Z,100
2017-03-26T00:42:53.771Z,100
2017-03-26T00:43:55.953Z,100
2017-03-26T00:44:58.090Z,100
2017-03-26T00:45:59.913Z,100
2017-03-26T00:47:01.788Z,100
2017-03-26T00:48:04.282Z,100
2017-03-26T00:49:06.085Z,100
2017-03-26T00:50:07.908Z,100
2017-03-26T00:51:09.718Z,100
2017-03-26T00:52:11.535Z,100
2017-03-26T00:53:13.688Z,100
2017-03-26T00:54:16.176Z,100
2017-03-26T00:55:18.331Z,100
2017-03-26T00:56:20.148Z,100
2017-03-26T00:57:22.295Z,100
2017-03-26T00:58:24.118Z,100
2017-03-26T00:59:26.608Z,100
2017-03-26T01:00:28.426Z,100
2017-03-26T01:01:30.235Z,100
2017-03-26T01:02:32.384Z,100
2017-03-26T01:03:34.877Z,100
2017-03-26T01:04:36.699Z,100
2017-03-26T01:05:38.520Z,100
2017-03-26T01:06:40.673Z,100
2017-03-26T01:07:42.489Z,100
2017-03-26T01:08:44.296Z,100
2017-03-26T01:09:46.460Z,100
2017-03-26T01:10:48.265Z,100
2017-03-26T01:11:50.084Z,100
2017-03-26T01:12:52.253Z,100
2017-03-26T01:13:54.101Z,100
2017-03-26T01:14:56.243Z,100
2017-03-26T01:15:58.062Z,100
2017-03-26T01:16:59.885Z,100
2017-03-26T01:18:02.030Z,100
2017-03-26T01:19:03.853Z,100
2017-03-26T01:20:06.030Z,100
2017-03-26T01:21:07.845Z,100
2017-03-26T01:22:09.650Z,100
2017-03-26T01:23:11.805Z,100
2017-03-26T01:24:13.609Z,100
2017-03-26T01:25:15.433Z,100
2017-03-26T01:26:17.234Z,100
2017-03-26T01:27:19.047Z,100
2017-03-26T01:28:20.850Z,100
2017-03-26T01:29:22.678Z,100
2017-03-26T01:30:24.816Z,100
2017-03-26T01:31:26.654Z,100
2017-03-26T01:32:28.461Z,100
2017-03-26T01:33:30.609Z,100
2017-03-26T01:34:32.428Z,100
2017-03-26T01:35:34.224Z,100
2017-03-26T01:36:36.039Z,100
2017-03-26T01:37:37.854Z,100
2017-03-26T01:38:39.690Z,100
2017-03-26T01:39:41.835Z,100
2017-03-26T01:40:43.999Z,100
2017-03-26T01:41:45.819Z,100
2017-03-26T01:42:47.626Z,100
2017-03-26T01:43:49.837Z,100
2017-03-26T01:44:51.993Z,100
2017-03-26T01:45:53.813Z,100
2017-03-26T01:46:55.978Z,100
2017-03-26T01:47:58.468Z,100
2017-03-26T01:49:00.340Z,100
2017-03-26T01:50:02.148Z,100
2017-03-26T01:51:03.968Z,100
2017-03-26T01:52:05.777Z,100
2017-03-26T01:53:07.932Z,100
2017-03-26T01:54:10.099Z,100
2017-03-26T01:55:11.914Z,100
2017-03-26T01:56:14.062Z,100
2017-03-26T01:57:15.890Z,100
2017-03-26T01:58:17.712Z,100
2017-03-26T01:59:19.875Z,100
2017-03-26T02:00:21.679Z,100
2017-03-26T02:01:23.495Z,100
2017-03-26T02:02:25.329Z,100
2017-03-26T02:03:27.146Z,100
2017-03-26T02:04:29.319Z,100
2017-03-26T02:05:31.119Z,100
2017-03-26T02:06:32.930Z,100
2017-03-26T02:07:34.738Z,100
2017-03-26T02:08:36.891Z,100
2017-03-26T02:09:39.048Z,100
2017-03-26T02:10:40.858Z,100
2017-03-26T02:11:42.689Z,100
2017-03-26T02:12:45.181Z,100
2017-03-26T02:13:46.993Z,100
2017-03-26T02:14:49.141Z,100
2017-03-26T02:15:50.956Z,100
2017-03-26T02:16:52.757Z,100
2017-03-26T02:17:54.578Z,100
2017-03-26T02:18:56.386Z,100
2017-03-26T02:19:58.211Z,100
2017-03-26T02:21:00.014Z,100
2017-03-26T02:22:01.824Z,100
2017-03-26T02:23:03.643Z,100
2017-03-26T02:24:05.805Z,100
2017-03-26T02:25:07.628Z,100
2017-03-26T02:26:09.780Z,100
2017-03-26T02:27:11.594Z,100
2017-03-26T02:28:13.747Z,100
2017-03-26T02:29:15.902Z,100
2017-03-26T02:30:18.053Z,100
2017-03-26T02:31:19.853Z,100
2017-03-26T02:32:21.667Z,100
2017-03-26T02:33:23.484Z,100
2017-03-26T02:34:25.301Z,100
2017-03-26T02:35:27.116Z,100
2017-03-26T02:36:29.286Z,100
2017-03-26T02:37:31.112Z,100
2017-03-26T02:38:33.268Z,100
2017-03-26T02:39:35.782Z,100
2017-03-26T02:40:37.586Z,100
2017-03-26T02:41:39.406Z,100
2017-03-26T02:42:41.211Z,100
2017-03-26T02:43:43.048Z,100
2017-03-26T02:44:45.238Z,100
2017-03-26T02:45:47.039Z,100
2017-03-26T02:46:48.850Z,100
2017-03-26T02:47:50.683Z,100
2017-03-26T02:48:52.502Z,100
2017-03-26T02:49:54.989Z,100
2017-03-26T02:50:56.808Z,100
2017-03-26T02:51:58.623Z,100
2017-03-26T02:53:00.438Z,100
2017-03-26T02:54:02.587Z,100
2017-03-26T02:55:04.746Z,100
2017-03-26T02:56:06.559Z,100
2017-03-26T02:57:08.371Z,100
2017-03-26T02:58:10.533Z,100
2017-03-26T02:59:12.390Z,100
2017-03-26T03:00:14.202Z,100
2017-03-26T03:01:16.034Z,100
2017-03-26T03:02:17.852Z,100
2017-03-26T03:03:20.007Z,100
2017-03-26T03:04:21.820Z,100
2017-03-26T03:05:23.641Z,100
2017-03-26T03:06:25.451Z,100
2017-03-26T03:07:27.260Z,100
2017-03-26T03:08:29.402Z,100
2017-03-26T03:09:32.288Z,100
2017-03-26T03:10:34.098Z,100
2017-03-26T03:11:36.242Z,100
2017-03-26T03:12:38.061Z,100
2017-03-26T03:13:39.873Z,100
2017-03-26T03:14:41.694Z,100
2017-03-26T03:15:43.503Z,100
2017-03-26T03:16:45.324Z,100
2017-03-26T03:17:47.127Z,100
2017-03-26T03:18:49.295Z,100
2017-03-26T03:19:51.099Z,100
2017-03-26T03:20:52.931Z,100
2017-03-26T03:21:54.736Z,100
2017-03-26T03:22:57.235Z,100
2017-03-26T03:23:59.712Z,100
2017-03-26T03:25:01.525Z,100
2017-03-26T03:26:03.680Z,100
2017-03-26T03:27:06.168Z,100
2017-03-26T03:28:07.984Z,100
2017-03-26T03:29:09.791Z,100
2017-03-26T03:30:11.940Z,100
2017-03-26T03:31:13.754Z,100
2017-03-26T03:32:15.571Z,100
2017-03-26T03:33:17.726Z,100
2017-03-26T03:34:19.885Z,100
2017-03-26T03:35:21.701Z,100
2017-03-26T03:36:23.508Z,100
2017-03-26T03:37:25.657Z,100
2017-03-26T03:38:27.520Z,100
2017-03-26T03:39:29.688Z,100
2017-03-26T03:40:31.501Z,100
2017-03-26T03:41:33.342Z,100
2017-03-26T03:42:35.504Z,100
2017-03-26T03:43:37.667Z,100
2017-03-26T03:44:39.837Z,100
2017-03-26T03:45:41.643Z,100
2017-03-26T03:46:43.462Z,100
2017-03-26T03:47:45.271Z,100
2017-03-26T03:48:48.098Z,100
2017-03-26T03:49:49.919Z,100
2017-03-26T03:50:52.749Z,100
2017-03-26T03:51:54.557Z,100
2017-03-26T03:52:56.371Z,100
2017-03-26T03:53:58.201Z,100
2017-03-26T03:55:00.351Z,100
2017-03-26T03:56:02.862Z,100
2017-03-26T03:57:04.680Z,100
2017-03-26T03:58:06.499Z,100
2017-03-26T03:59:08.301Z,100
2017-03-26T04:00:10.793Z,100
2017-03-26T04:01:12.610Z,100
2017-03-26T04:02:14.428Z,100
2017-03-26T04:03:16.237Z,100
2017-03-26T04:04:18.059Z,100
2017-03-26T04:05:20.200Z,100
2017-03-26T04:06:22.025Z,100
2017-03-26T04:07:23.844Z,100
2017-03-26T04:08:25.651Z,100
2017-03-26T04:09:28.160Z,100
2017-03-26T04:10:30.295Z,100
2017-03-26T04:11:32.114Z,100
2017-03-26T04:12:33.936Z,100
2017-03-26T04:13:36.092Z,100
2017-03-26T04:14:37.896Z,100
2017-03-26T04:15:40.053Z,100
2017-03-26T04:16:42.212Z,100
2017-03-26T04:17:44.372Z,100
2017-03-26T04:18:46.524Z,100
2017-03-26T04:19:48.328Z,100
2017-03-26T04:20:50.142Z,100
2017-03-26T04:21:52.305Z,100
2017-03-26T04:22:54.121Z,100
2017-03-26T04:23:56.282Z,100
2017-03-26T04:24:58.441Z,100
2017-03-26T04:26:00.266Z,100
2017-03-26T04:27:02.072Z,100
2017-03-26T04:28:03.894Z,100
2017-03-26T04:29:05.706Z,100
2017-03-26T04:30:07.521Z,100
2017-03-26T04:31:09.332Z,100
2017-03-26T04:32:11.191Z,100
2017-03-26T04:33:13.068Z,100
2017-03-26T04:34:15.320Z,100
2017-03-26T04:35:17.197Z,100
2017-03-26T04:36:19.070Z,100
2017-03-26T04:37:21.308Z,100
2017-03-26T04:38:23.183Z,100
2017-03-26T04:39:25.371Z,100
2017-03-26T04:40:27.198Z,100
2017-03-26T04:41:29.050Z,100
2017-03-26T04:42:30.895Z,100
2017-03-26T04:43:32.781Z,100
2017-03-26T04:44:34.628Z,100
2017-03-26T04:45:36.486Z,100
2017-03-26T04:46:38.311Z,100
2017-03-26T04:47:40.244Z,100
2017-03-26T04:48:42.463Z,100
2017-03-26T04:49:44.313Z,100
2017-03-26T04:50:46.143Z,100
2017-03-26T04:51:47.998Z,100
2017-03-26T04:52:50.155Z,100
2017-03-26T04:53:52.008Z,100
2017-03-26T04:54:53.844Z,100
2017-03-26T04:55:55.701Z,100
2017-03-26T04:56:57.566Z,100
2017-03-26T04:57:59.900Z,100
2017-03-26T04:59:02.116Z,100
2017-03-26T05:00:03.943Z,100
2017-03-26T05:01:05.796Z,100
2017-03-26T05:02:07.985Z,100
2017-03-26T05:03:09.837Z,100
2017-03-26T05:04:12.686Z,100
2017-03-26T05:05:14.653Z,100
2017-03-26T05:06:16.566Z,100
2017-03-26T05:07:18.395Z,100
2017-03-26T05:08:20.303Z,100
2017-03-26T05:09:22.498Z,100
2017-03-26T05:10:24.337Z,100
2017-03-26T05:11:26.180Z,100
2017-03-26T05:12:27.996Z,100
2017-03-26T05:13:29.849Z,100
2017-03-26T05:14:31.839Z,100
2017-03-26T05:15:33.990Z,100
2017-03-26T05:16:35.822Z,100
2017-03-26T05:17:37.687Z,100
2017-03-26T05:18:39.873Z,100
2017-03-26T05:19:41.702Z,100
2017-03-26T05:20:43.522Z,100
2017-03-26T05:21:45.339Z,100
2017-03-26T05:22:47.619Z,100
2017-03-26T05:23:50.134Z,100
2017-03-26T05:24:52.658Z,100
2017-03-26T05:25:54.529Z,100
2017-03-26T05:26:56.358Z,100
2017-03-26T05:27:58.176Z,100
2017-03-26T05:29:01.060Z,100
2017-03-26T05:30:03.234Z,100
2017-03-26T05:31:05.139Z,100
2017-03-26T05:32:06.966Z,100
2017-03-26T05:33:08.869Z,100
2017-03-26T05:34:10.716Z,100
2017-03-26T05:35:12.638Z,100
2017-03-26T05:36:14.445Z,100
2017-03-26T05:37:16.334Z,100
2017-03-26T05:38:18.232Z,100
2017-03-26T05:39:20.485Z,100
2017-03-26T05:40:22.293Z,100
2017-03-26T05:41:24.115Z,100
2017-03-26T05:42:26.086Z,100
2017-03-26T05:43:27.971Z,100
2017-03-26T05:44:29.821Z,100
2017-03-26T05:45:31.644Z,100
2017-03-26T05:46:33.489Z,100
2017-03-26T05:47:35.331Z,100
2017-03-26T05:48:37.216Z,100
2017-03-26T05:49:39.036Z,100
2017-03-26T05:50:41.202Z,100
2017-03-26T05:51:43.372Z,100
2017-03-26T05:52:45.384Z,100
2017-03-26T05:53:47.542Z,100
2017-03-26T05:54:49.755Z,100
2017-03-26T05:55:51.575Z,100
2017-03-26T05:56:53.480Z,100
2017-03-26T05:57:55.673Z,100
2017-03-26T05:58:57.850Z,100
2017-03-26T05:59:59.681Z,100
2017-03-26T06:01:01.491Z,100
2017-03-26T06:02:03.312Z,100
2017-03-26T06:03:05.158Z,100
2017-03-26T06:04:07.328Z,100
2017-03-26T06:05:09.181Z,100
2017-03-26T06:06:11.368Z,100
2017-03-26T06:07:13.217Z,100
2017-03-26T06:08:15.129Z,100
2017-03-26T06:09:17.027Z,100
2017-03-26T06:10:18.833Z,100
2017-03-26T06:11:20.652Z,100
2017-03-26T06:12:22.497Z,100
2017-03-26T06:13:24.829Z,100
2017-03-26T06:14:27.006Z,100
2017-03-26T06:15:28.818Z,100
2017-03-26T06:16:30.627Z,100
2017-03-26T06:17:32.485Z,100
2017-03-26T06:18:34.296Z,100
2017-03-26T06:19:36.152Z,100
2017-03-26T06:20:37.973Z,100
2017-03-26T06:21:39.785Z,100
2017-03-26T06:22:41.589Z,100
2017-03-26T06:23:43.419Z,100
2017-03-26T06:24:45.565Z,100
2017-03-26T06:25:47.371Z,100
2017-03-26T06:26:49.167Z,100
2017-03-26T06:27:50.989Z,100
2017-03-26T06:28:53.129Z,100
2017-03-26T06:29:55.297Z,100
2017-03-26T06:30:57.090Z,100
2017-03-26T06:31:58.918Z,100
2017-03-26T06:33:00.717Z,100
2017-03-26T06:34:02.541Z,100
2017-03-26T06:35:04.358Z,100
2017-03-26T06:36:06.501Z,100
2017-03-26T06:37:08.321Z,100
2017-03-26T06:38:10.131Z,100
2017-03-26T06:39:11.949Z,100
2017-03-26T06:40:14.113Z,100
2017-03-26T06:41:16.283Z,100
2017-03-26T06:42:18.092Z,100
2017-03-26T06:43:19.924Z,100
2017-03-26T06:44:21.730Z,100
2017-03-26T06:45:23.564Z,100
2017-03-26T06:46:25.368Z,100
2017-03-26T06:47:27.177Z,100
2017-03-26T06:48:29.317Z,100
2017-03-26T06:49:31.826Z,100
2017-03-26T06:50:33.637Z,100
2017-03-26T06:51:35.787Z,100
2017-03-26T06:52:38.321Z,100
2017-03-26T06:53:40.135Z,100
2017-03-26T06:54:41.946Z,100
2017-03-26T06:55:43.771Z,100
2017-03-26T06:56:45.573Z,100
2017-03-26T06:57:48.062Z,100
2017-03-26T06:58:50.223Z,100
2017-03-26T06:59:52.391Z,100
2017-03-26T07:00:54.533Z,100
2017-03-26T07:01:56.354Z,100
2017-03-26T07:02:58.515Z,100
2017-03-26T07:04:00.322Z,100
2017-03-26T07:05:02.128Z,100
2017-03-26T07:06:03.944Z,100
2017-03-26T07:07:05.758Z,100
2017-03-26T07:08:07.905Z,100
2017-03-26T07:09:09.717Z,100
2017-03-26T07:10:11.542Z,100
2017-03-26T07:11:13.358Z,100
2017-03-26T07:12:15.508Z,100
2017-03-26T07:13:17.329Z,100
2017-03-26T07:14:19.840Z,100
2017-03-26T07:15:21.665Z,100
2017-03-26T07:16:23.499Z,100
2017-03-26T07:17:25.296Z,100
2017-03-26T07:18:27.111Z,100
2017-03-26T07:19:29.588Z,100
2017-03-26T07:20:31.760Z,100
2017-03-26T07:21:33.562Z,100
2017-03-26T07:22:35.378Z,100
2017-03-26T07:23:37.199Z,100
2017-03-26T07:24:39.359Z,100
2017-03-26T07:25:41.159Z,100
2017-03-26T07:26:43.316Z,99.9
2017-03-26T07:27:45.471Z,100
2017-03-26T07:28:47.293Z,100
2017-03-26T07:29:49.111Z,100
2017-03-26T07:30:50.918Z,100
2017-03-26T07:31:52.735Z,100
2017-03-26T07:32:54.543Z,100
2017-03-26T07:33:56.368Z,100
2017-03-26T07:34:58.177Z,99.6
2017-03-26T07:36:00.338Z,99.7
2017-03-26T07:37:02.155Z,99.6
2017-03-26T07:38:03.982Z,99.3
2017-03-26T07:39:05.795Z,99.3
2017-03-26T07:40:07.606Z,99.6
2017-03-26T07:41:09.423Z,99.8
2017-03-26T07:42:11.246Z,99.5
2017-03-26T07:43:13.400Z,98.7
2017-03-26T07:44:15.613Z,98.3
2017-03-26T07:45:17.424Z,98
2017-03-26T07:46:19.245Z,97.5
2017-03-26T07:47:21.059Z,97.9
2017-03-26T07:48:22.873Z,97.6
2017-03-26T07:49:24.691Z,97.2
2017-03-26T07:50:26.509Z,96.9
2017-03-26T07:51:28.321Z,97.1
2017-03-26T07:52:30.478Z,96.2
2017-03-26T07:53:32.310Z,96
2017-03-26T07:54:34.123Z,96.1
2017-03-26T07:55:36.286Z,95.4
2017-03-26T07:56:38.797Z,95.2
2017-03-26T07:57:40.616Z,94.6
2017-03-26T07:58:42.768Z,95.4
2017-03-26T07:59:44.597Z,95.6
2017-03-26T08:00:46.407Z,94.6
2017-03-26T08:01:48.241Z,93.3
2017-03-26T08:02:50.046Z,93.1
2017-03-26T08:03:52.202Z,93.4
2017-03-26T08:04:54.004Z,92.7
2017-03-26T08:05:55.829Z,93
2017-03-26T08:06:57.638Z,92.6
2017-03-26T08:07:59.485Z,92.3
2017-03-26T08:09:01.309Z,92.4
2017-03-26T08:10:03.802Z,92.2
2017-03-26T08:11:05.623Z,91.8
2017-03-26T08:12:07.429Z,90.9
2017-03-26T08:13:09.251Z,90.8
2017-03-26T08:14:11.055Z,90.8
2017-03-26T08:15:12.887Z,90.2
2017-03-26T08:16:14.689Z,88.9
2017-03-26T08:17:16.839Z,88.5
2017-03-26T08:18:19.004Z,88.1
2017-03-26T08:19:21.160Z,87.7
2017-03-26T08:20:23.323Z,87.1
2017-03-26T08:21:25.155Z,87
2017-03-26T08:22:26.975Z,86.9
2017-03-26T08:23:28.812Z,86.3
2017-03-26T08:24:30.631Z,86
2017-03-26T08:25:32.450Z,85.6
2017-03-26T08:26:34.259Z,85.5
2017-03-26T08:27:36.093Z,85.6
2017-03-26T08:28:38.249Z,84.7
2017-03-26T08:29:40.069Z,82.8
2017-03-26T08:30:41.887Z,83.9
2017-03-26T08:31:43.702Z,82.4
2017-03-26T08:32:45.518Z,82.1
2017-03-26T08:33:47.344Z,82.5
2017-03-26T08:34:49.173Z,81.4
2017-03-26T08:35:50.988Z,82
2017-03-26T08:36:52.808Z,80.9
2017-03-26T08:37:54.635Z,79.9
2017-03-26T08:38:56.804Z,80.2
2017-03-26T08:39:58.628Z,79.4
2017-03-26T08:41:00.457Z,78.6
2017-03-26T08:42:02.289Z,79.1
2017-03-26T08:43:04.448Z,79.4
2017-03-26T08:44:06.293Z,79
2017-03-26T08:45:08.103Z,77.9
2017-03-26T08:46:09.976Z,76.6
2017-03-26T08:47:11.794Z,76.4
2017-03-26T08:48:13.644Z,76.4
2017-03-26T08:49:15.462Z,76
2017-03-26T08:50:17.639Z,76
2017-03-26T08:51:19.798Z,75.8
2017-03-26T08:52:21.673Z,75.8
2017-03-26T08:53:23.507Z,75.5
2017-03-26T08:54:25.675Z,75.2
2017-03-26T08:56:38.030Z,74.8
2017-03-26T08:57:39.913Z,73.8
2017-03-26T08:58:42.494Z,73.8
2017-03-26T08:59:44.574Z,73.7
2017-03-26T09:00:46.458Z,71.7
2017-03-26T09:01:48.350Z,72.4
2017-03-26T09:02:50.409Z,72.3
2017-03-26T09:03:52.633Z,72.9
2017-03-26T09:04:54.910Z,73.1
2017-03-26T09:05:57.226Z,71.2
2017-03-26T09:06:59.102Z,71.2
2017-03-26T09:08:01.074Z,71.3
2017-03-26T09:09:03.067Z,70.2
2017-03-26T09:10:05.047Z,69.2
2017-03-26T09:11:06.933Z,70.3
2017-03-26T09:12:08.859Z,69.9
2017-03-26T09:13:10.963Z,68.7
2017-03-26T09:14:12.855Z,67.8
2017-03-26T09:15:14.773Z,67.3
2017-03-26T09:16:16.732Z,66.9
2017-03-26T09:17:18.668Z,65.7
2017-03-26T09:18:20.977Z,65.1
2017-03-26T09:19:22.959Z,65.4
2017-03-26T09:20:24.883Z,65
2017-03-26T09:21:26.812Z,64.9
2017-03-26T09:22:28.704Z,65.5
2017-03-26T09:23:30.607Z,64.8
2017-03-26T09:24:32.719Z,65.1
2017-03-26T09:25:34.604Z,63.7
2017-03-26T09:26:36.515Z,62.9
2017-03-26T09:27:38.409Z,63.4
2017-03-26T09:28:40.663Z,62.8
2017-03-26T09:29:42.561Z,63
2017-03-26T09:30:44.787Z,61.3
2017-03-26T09:31:46.670Z,62
2017-03-26T09:32:48.555Z,62.9
2017-03-26T09:33:50.943Z,63.2
2017-03-26T09:34:53.184Z,63.1
2017-03-26T09:35:55.095Z,62.3
2017-03-26T09:36:57.075Z,62
2017-03-26T09:37:59.132Z,62.2
2017-03-26T09:39:01.712Z,61.1
2017-03-26T09:40:03.766Z,61.7
2017-03-26T09:41:05.680Z,61.5
2017-03-26T09:42:07.570Z,62.1
2017-03-26T09:43:09.448Z,61.3
2017-03-26T09:44:11.753Z,62.3
2017-03-26T09:45:13.795Z,61.6
2017-03-26T09:46:15.692Z,61.3
2017-03-26T09:47:17.581Z,60.6
2017-03-26T09:48:19.968Z,62.1
2017-03-26T09:49:22.370Z,60.9
2017-03-26T09:50:24.592Z,60.8
2017-03-26T09:51:26.911Z,60.4
2017-03-26T09:52:29.128Z,60.7
2017-03-26T09:53:31.007Z,59.4
2017-03-26T09:54:33.104Z,58.2
2017-03-26T09:55:35.015Z,58.8
2017-03-26T09:56:36.906Z,59.3
2017-03-26T09:57:39.198Z,60
2017-03-26T09:58:41.095Z,58.3
2017-03-26T09:59:42.995Z,58.9
2017-03-26T10:00:45.307Z,58.7
2017-03-26T10:01:47.206Z,57.5
2017-03-26T10:02:49.090Z,58
2017-03-26T10:03:51.270Z,57.2
2017-03-26T10:04:53.163Z,57.9
2017-03-26T10:05:55.408Z,56.8
2017-03-26T10:06:57.302Z,56.5
2017-03-26T10:07:59.183Z,57.6
2017-03-26T10:09:02.125Z,57.5
2017-03-26T10:10:04.812Z,56.6
2017-03-26T10:11:07.045Z,55.9
2017-03-26T10:12:09.309Z,56.2
2017-03-26T10:13:11.183Z,54.7
2017-03-26T10:14:13.089Z,54
2017-03-26T10:15:15.342Z,53.8
2017-03-26T10:16:17.248Z,55.1
2017-03-26T10:17:19.184Z,56.1
2017-03-26T10:18:21.067Z,55.5
2017-03-26T10:19:23.637Z,55.6
2017-03-26T10:20:25.720Z,56.4
2017-03-26T10:21:27.601Z,56
2017-03-26T10:22:29.490Z,57.1
2017-03-26T10:23:31.375Z,56.3
2017-03-26T10:24:33.271Z,55.7
2017-03-26T10:25:35.320Z,53.9
2017-03-26T10:26:37.272Z,52.1
2017-03-26T10:27:39.179Z,51.6
2017-03-26T10:28:41.753Z,51.5
2017-03-26T10:29:43.661Z,52.1
2017-03-26T10:30:45.625Z,51.6
2017-03-26T10:31:47.522Z,53.6
2017-03-26T10:32:49.428Z,51.9
2017-03-26T10:33:51.295Z,51.9
2017-03-26T10:34:53.545Z,51.6
2017-03-26T10:35:55.779Z,53
2017-03-26T10:36:57.765Z,52
2017-03-26T10:37:59.988Z,50.5
2017-03-26T10:39:02.551Z,50.4
2017-03-26T10:40:04.437Z,50.5
2017-03-26T10:41:06.648Z,51.1
2017-03-26T10:42:08.515Z,52.8
2017-03-26T10:43:10.746Z,54.5
2017-03-26T10:44:12.624Z,54
2017-03-26T10:45:15.198Z,53.2
2017-03-26T10:46:17.153Z,54.1
2017-03-26T10:47:19.023Z,53.8
2017-03-26T10:48:20.908Z,53.4
2017-03-26T10:49:23.474Z,52.3
2017-03-26T10:50:25.447Z,53.4
2017-03-26T10:51:27.515Z,53.5
2017-03-26T10:52:29.388Z,53.3
2017-03-26T10:53:31.266Z,52.5
2017-03-26T10:54:33.623Z,53.2
2017-03-26T10:55:35.493Z,53
2017-03-26T10:56:37.366Z,52.5
2017-03-26T10:57:39.242Z,51
2017-03-26T10:58:41.381Z,50.3
2017-03-26T10:59:43.276Z,50.5
2017-03-26T11:00:45.159Z,48.6
2017-03-26T11:01:47.703Z,48.4
2017-03-26T11:02:49.584Z,47.8
2017-03-26T11:03:51.476Z,48.1
2017-03-26T11:04:53.446Z,48.7
2017-03-26T11:05:55.334Z,48.4
2017-03-26T11:06:57.571Z,47.6
2017-03-26T11:08:00.211Z,47.4
2017-03-26T11:09:02.096Z,47.9
2017-03-26T11:10:04.088Z,45.8
2017-03-26T11:11:05.958Z,44.7
2017-03-26T11:12:08.185Z,45.8
2017-03-26T11:13:10.445Z,44.4
2017-03-26T11:14:12.314Z,45.7
2017-03-26T11:15:14.188Z,44.9
2017-03-26T11:16:16.154Z,46.1
2017-03-26T11:17:18.028Z,47.3
2017-03-26T11:18:19.894Z,47.1
2017-03-26T11:19:22.164Z,47.5
2017-03-26T11:20:24.035Z,46.6
2017-03-26T11:21:26.252Z,47.3
2017-03-26T11:22:28.314Z,45.8
2017-03-26T11:23:30.535Z,45.6
2017-03-26T11:24:32.405Z,46.4
2017-03-26T11:25:34.440Z,45.2
2017-03-26T11:26:36.647Z,43.7
2017-03-26T11:27:38.871Z,43.2
2017-03-26T11:28:40.751Z,42.5
2017-03-26T11:29:42.836Z,42.9
2017-03-26T11:30:44.709Z,43.4
2017-03-26T11:31:46.572Z,42.8
2017-03-26T11:32:48.459Z,43.3
2017-03-26T11:33:50.339Z,42.7
2017-03-26T11:34:52.552Z,42.1
2017-03-26T11:35:54.424Z,41.8
2017-03-26T11:36:56.495Z,43
2017-03-26T11:37:58.375Z,43.2
2017-03-26T11:39:00.604Z,43.6
2017-03-26T11:40:02.468Z,41.9
2017-03-26T11:41:04.340Z,41.5
2017-03-26T11:42:06.219Z,41.7
2017-03-26T11:43:08.218Z,42.3
2017-03-26T11:44:10.419Z,40.9
2017-03-26T11:45:12.439Z,41.4
2017-03-26T11:46:14.310Z,41.8
2017-03-26T11:47:16.193Z,41.7
2017-03-26T11:48:18.406Z,42.2
2017-03-26T11:49:20.684Z,41.3
2017-03-26T11:50:22.568Z,41.3
2017-03-26T11:51:24.465Z,41.2
2017-03-26T11:52:26.334Z,42.1
2017-03-26T11:53:28.544Z,41.9
2017-03-26T11:54:30.778Z,42.9
2017-03-26T11:55:32.660Z,42.5
2017-03-26T11:56:34.531Z,41.2
2017-03-26T11:57:37.105Z,42.4
2017-03-26T11:58:38.984Z,42.4
2017-03-26T11:59:40.877Z,41.8
2017-03-26T12:00:43.107Z,42.5
2017-03-26T12:01:44.980Z,44.3
2017-03-26T12:02:46.863Z,44.7
2017-03-26T12:03:48.768Z,43.3
2017-03-26T12:04:50.644Z,42.8
2017-03-26T12:05:52.520Z,43.2
2017-03-26T12:06:54.725Z,42.7
2017-03-26T12:07:56.593Z,42.9
2017-03-26T12:08:58.803Z,42.5
2017-03-26T12:10:00.683Z,41
2017-03-26T12:11:02.571Z,41.3
2017-03-26T12:12:04.451Z,41.5
2017-03-26T12:13:06.325Z,42.1
2017-03-26T12:14:08.540Z,41.9
2017-03-26T12:15:10.414Z,41.8
2017-03-26T12:16:12.618Z,40.4
2017-03-26T12:17:14.490Z,40.3
2017-03-26T12:18:16.708Z,39.1
2017-03-26T12:19:18.577Z,40.5
2017-03-26T12:20:20.455Z,40.2
2017-03-26T12:21:22.320Z,38.9
2017-03-26T12:22:24.203Z,40.4
2017-03-26T12:23:26.078Z,41.1
2017-03-26T12:24:28.660Z,40.1
2017-03-26T12:25:30.549Z,40.5
2017-03-26T12:26:32.462Z,39.2
2017-03-26T12:27:34.337Z,38.8
2017-03-26T12:28:36.559Z,39.2
2017-03-26T12:29:38.430Z,38.6
2017-03-26T12:30:40.722Z,39.2
2017-03-26T12:31:42.591Z,40.7
2017-03-26T12:32:44.479Z,40
2017-03-26T12:33:46.354Z,40.7
2017-03-26T12:34:48.285Z,41
2017-03-26T12:35:50.145Z,40.3
2017-03-26T12:36:52.025Z,40.7
2017-03-26T12:37:54.585Z,38.9
2017-03-26T12:38:56.472Z,39.6
2017-03-26T12:39:58.359Z,38.9
2017-03-26T12:41:00.235Z,38.7
2017-03-26T12:42:02.117Z,39.4
2017-03-26T12:43:04.693Z,39.1
2017-03-26T12:44:06.613Z,38.4
2017-03-26T12:45:08.495Z,39.3
2017-03-26T12:46:10.718Z,38.7
2017-03-26T12:47:12.595Z,38.9
2017-03-26T12:48:14.467Z,38.8
2017-03-26T12:49:16.691Z,38.7
2017-03-26T12:50:18.910Z,39.6
2017-03-26T12:51:20.777Z,39
2017-03-26T12:52:22.664Z,38.2
2017-03-26T12:53:24.886Z,39.2
2017-03-26T12:54:27.098Z,39.4
2017-03-26T12:55:28.981Z,41
2017-03-26T12:56:30.909Z,40.1
2017-03-26T12:57:32.778Z,39
2017-03-26T12:58:34.658Z,39.3
2017-03-26T12:59:36.539Z,40.3
2017-03-26T13:00:38.410Z,40.2
2017-03-26T13:01:40.296Z,39.4
2017-03-26T13:02:42.180Z,39
2017-03-26T13:03:44.066Z,38.4
2017-03-26T13:04:45.955Z,38.7
2017-03-26T13:05:47.837Z,38.6
2017-03-26T13:06:50.048Z,39.7
2017-03-26T13:07:51.942Z,39.3
2017-03-26T13:08:53.821Z,38.9
2017-03-26T13:09:56.718Z,40.2
2017-03-26T13:10:58.946Z,40.3
2017-03-26T13:12:00.826Z,40.6
2017-03-26T13:13:03.064Z,40.8
2017-03-26T13:14:04.933Z,41.9
2017-03-26T13:15:06.816Z,41.9
2017-03-26T13:16:08.697Z,42
2017-03-26T13:17:10.566Z,41.2
2017-03-26T13:18:12.473Z,41.6
2017-03-26T13:19:14.350Z,41.7
2017-03-26T13:20:16.592Z,42.1
2017-03-26T13:21:18.478Z,41.2
2017-03-26T13:22:20.675Z,41.1
2017-03-26T13:23:22.886Z,39.9
2017-03-26T13:24:24.764Z,40.1
2017-03-26T13:25:26.656Z,40.9
2017-03-26T13:26:28.523Z,40.8
2017-03-26T13:27:30.393Z,39.9
2017-03-26T13:28:32.628Z,40.5
2017-03-26T13:29:34.507Z,40.9
2017-03-26T13:30:36.376Z,41.4
2017-03-26T13:31:38.247Z,41.5
2017-03-26T13:32:40.144Z,41.9
2017-03-26T13:33:42.032Z,41.9
2017-03-26T13:34:44.238Z,41.4
2017-03-26T13:35:46.106Z,41.1
2017-03-26T13:36:47.978Z,41.4
2017-03-26T13:37:49.861Z,41.1
2017-03-26T13:38:51.730Z,41.7
2017-03-26T13:39:53.620Z,41.3
2017-03-26T13:40:55.499Z,41.7
2017-03-26T13:41:57.726Z,42.9
2017-03-26T13:42:59.952Z,43.2
2017-03-26T13:44:02.177Z,42.6
2017-03-26T13:45:04.390Z,42.5
2017-03-26T13:46:06.307Z,41.9
2017-03-26T13:47:08.176Z,41.3
2017-03-26T13:48:10.066Z,40.6
2017-03-26T13:49:12.625Z,40.4
2017-03-26T13:50:14.829Z,40.5
2017-03-26T13:51:16.713Z,40.4
2017-03-26T13:52:18.930Z,40.3
2017-03-26T13:53:20.791Z,40.1
2017-03-26T13:54:23.371Z,40.2
2017-03-26T13:55:25.232Z,39.8
2017-03-26T13:56:27.118Z,40
2017-03-26T13:57:29.331Z,40
2017-03-26T13:58:31.207Z,39.9
2017-03-26T13:59:33.078Z,40.4
2017-03-26T14:00:34.961Z,40.5
2017-03-26T14:01:36.842Z,39.8
2017-03-26T14:02:38.735Z,40.3
2017-03-26T14:03:40.699Z,40.8